Time;durP1;ratioP1;P1;durP2;ratioP2;P2;SDS_P1;SDS_P2;PMS_P1;PMS_P2;Temp;Humidity;BMP_temperature;BMP_pressure;BME280_temperature;BME280_humidity;BME280_pressure;Samples;Min_cycle;Max_cycle;Signal;HPM_P1;HPM_P2
2023/01/03 00:00:10;;;;;;;4.00;1.65;;;-2.40;99.90;;;;;;5093066;28;20615;-72
2023/01/03 00:02:36;;;;;;;0.70;0.70;;;-2.50;99.90;;;;;;5092299;28;20212;-72
2023/01/03 00:05:02;;;;;;;0.70;0.70;;;-2.50;99.90;;;;;;5092795;28;20322;-71
2023/01/03 00:07:33;;;;;;;0.75;0.75;;;-2.50;99.90;;;;;;5091816;28;20206;-71
2023/01/03 00:10:00;;;;;;;0.60;0.60;;;-2.50;99.90;;;;;;5091978;28;20228;-71
2023/01/03 00:12:26;;;;;;;0.70;0.70;;;-2.50;99.90;;;;;;5092551;28;20192;-71
2023/01/03 00:14:52;;;;;;;0.70;0.70;;;-2.50;99.90;;;;;;5092639;28;20271;-71
2023/01/03 00:17:18;;;;;;;0.70;0.70;;;-2.50;99.90;;;;;;5092386;28;20283;-72
2023/01/03 00:19:44;;;;;;;0.70;0.70;;;-2.60;99.90;;;;;;5092654;28;20646;-72
2023/01/03 00:22:12;;;;;;;0.70;0.70;;;-2.50;99.90;;;;;;5092603;28;20314;-71
2023/01/03 00:24:38;;;;;;;0.70;0.70;;;-2.50;99.90;;;;;;5092577;28;20192;-71
2023/01/03 00:27:04;;;;;;;0.80;0.80;;;-2.50;99.90;;;;;;5092469;28;20226;-71
2023/01/03 00:29:29;;;;;;;0.80;0.80;;;-2.50;99.90;;;;;;5092302;28;20202;-71
2023/01/03 00:31:56;;;;;;;0.70;0.70;;;-2.50;99.90;;;;;;5092336;28;20192;-70
2023/01/03 00:34:22;;;;;;;0.70;0.70;;;-2.50;99.90;;;;;;5092222;28;20192;-72
2023/01/03 00:36:48;;;;;;;0.52;0.52;;;-2.50;99.90;;;;;;5092310;28;20194;-71
2023/01/03 00:39:13;;;;;;;0.80;0.80;;;-2.50;99.90;;;;;;5070755;28;20197;-71
2023/01/03 00:41:40;;;;;;;0.70;0.70;;;-2.50;99.90;;;;;;5071727;28;20287;-72
2023/01/03 00:44:06;;;;;;;0.70;0.70;;;-2.40;99.90;;;;;;5072425;28;20216;-71
2023/01/03 00:46:32;;;;;;;0.60;0.60;;;-2.40;99.90;;;;;;5071299;28;20268;-72
2023/01/03 00:48:58;;;;;;;0.73;0.73;;;-2.40;99.90;;;;;;5072089;28;20274;-71
2023/01/03 00:51:26;;;;;;;0.70;0.70;;;-2.40;99.90;;;;;;5071829;28;20239;-70
2023/01/03 00:53:55;;;;;;;0.82;0.82;;;-2.40;99.90;;;;;;5071967;28;20540;-74
2023/01/03 00:56:23;;;;;;;0.73;0.73;;;-2.40;99.90;;;;;;5079493;28;20192;-71
2023/01/03 00:58:49;;;;;;;0.75;0.75;;;-2.40;99.90;;;;;;5092023;28;20257;-73
2023/01/03 01:01:17;;;;;;;0.90;0.90;;;-2.40;99.90;;;;;;5091830;28;20208;-75
2023/01/03 01:03:47;;;;;;;0.80;0.80;;;-2.40;99.90;;;;;;5064647;28;20221;-72
2023/01/03 01:06:14;;;;;;;0.80;0.80;;;-2.40;99.90;;;;;;5071231;28;20234;-72
2023/01/03 01:08:41;;;;;;;0.70;0.70;;;-2.40;99.90;;;;;;5071321;28;20189;-73
2023/01/03 01:11:07;;;;;;;0.60;0.60;;;-2.50;99.90;;;;;;5071625;28;20193;-71
2023/01/03 01:13:34;;;;;;;0.80;0.80;;;-2.40;99.90;;;;;;5071693;28;20189;-72
2023/01/03 01:16:08;;;;;;;0.77;0.77;;;-2.50;99.90;;;;;;5074410;28;20189;-72
2023/01/03 01:18:35;;;;;;;0.73;0.73;;;-2.50;99.90;;;;;;5075832;28;20609;-71
2023/01/03 01:21:09;;;;;;;0.70;0.70;;;-2.50;99.90;;;;;;5075759;28;20239;-71
2023/01/03 01:23:37;;;;;;;0.70;0.70;;;-2.50;99.90;;;;;;5075499;28;20207;-71
2023/01/03 01:26:04;;;;;;;0.70;0.70;;;-2.50;99.90;;;;;;5057818;28;20671;-71
2023/01/03 01:28:30;;;;;;;0.80;0.80;;;-2.50;99.90;;;;;;5075394;28;20173;-71
2023/01/03 01:31:00;;;;;;;0.63;0.63;;;-2.40;99.90;;;;;;5075372;28;20193;-71
2023/01/03 01:33:25;;;;;;;0.70;0.70;;;-2.50;99.90;;;;;;5075072;28;20215;-72
2023/01/03 01:35:51;;;;;;;0.70;0.70;;;-2.50;99.90;;;;;;5074805;28;20559;-72
2023/01/03 01:38:17;;;;;;;0.63;0.63;;;-2.50;99.90;;;;;;5075150;28;20643;-73
2023/01/03 01:40:43;;;;;;;0.70;0.70;;;-2.50;99.90;;;;;;5075086;28;20201;-71
2023/01/03 01:46:28;;;;;;;0.80;0.80;;;-2.50;99.90;;;;;;5075324;28;20282;-71
2023/01/03 01:49:04;;;;;;;0.70;0.70;;;-2.50;99.90;;;;;;5074486;28;20576;-71
2023/01/03 01:51:33;;;;;;;0.70;0.70;;;-2.40;99.90;;;;;;5074539;28;20193;-71
2023/01/03 01:54:03;;;;;;;0.80;0.80;;;-2.40;99.90;;;;;;5074673;28;20192;-71
2023/01/03 01:56:33;;;;;;;0.70;0.70;;;-2.50;99.90;;;;;;5073677;28;20201;-72
2023/01/03 01:58:59;;;;;;;0.75;0.75;;;-2.40;99.90;;;;;;5075127;28;20193;-71
2023/01/03 02:01:25;;;;;;;0.65;0.65;;;-2.40;99.90;;;;;;5074490;28;20200;-71
2023/01/03 02:04:02;;;;;;;0.70;0.70;;;-2.40;99.90;;;;;;5097020;22;20285;-71
2023/01/03 02:06:30;;;;;;;0.70;0.70;;;-2.40;99.90;;;;;;5077720;28;20730;-70
2023/01/03 02:08:55;;;;;;;0.80;0.80;;;-2.40;99.90;;;;;;5095946;28;20737;-73
2023/01/03 02:11:42;;;;;;;0.70;0.70;;;-2.40;99.90;;;;;;5095689;28;20275;-72
2023/01/03 02:14:26;;;;;;;0.75;0.75;;;-2.40;99.90;;;;;;5077809;28;20626;-72
2023/01/03 02:16:52;;;;;;;0.80;0.80;;;-2.40;99.90;;;;;;5096030;28;20192;-72
2023/01/03 02:19:42;;;;;;;0.73;0.73;;;-2.50;99.90;;;;;;5095826;28;20210;-75
2023/01/03 02:22:31;;;;;;;0.80;0.80;;;-2.40;99.90;;;;;;5077546;28;20674;-73
2023/01/03 02:25:11;;;;;;;0.70;0.70;;;-2.40;99.90;;;;;;5095707;28;20674;-73
2023/01/03 02:28:02;;;;;;;0.75;0.75;;;-2.40;99.90;;;;;;5095088;28;20548;-73
2023/01/03 02:30:36;;;;;;;0.60;0.60;;;-2.50;99.90;;;;;;5095264;28;20666;-73
2023/01/03 02:33:13;;;;;;;0.60;0.60;;;-2.40;99.90;;;;;;5094621;28;20183;-72
2023/01/03 02:35:45;;;;;;;0.60;0.60;;;-2.50;99.90;;;;;;5075141;28;20193;-71
2023/01/03 02:38:24;;;;;;;0.65;0.65;;;-2.50;99.90;;;;;;5083132;28;20253;-71
2023/01/03 02:41:23;;;;;;;0.73;0.73;;;-2.50;99.90;;;;;;5095358;28;20254;-72
2023/01/03 02:44:16;;;;;;;0.80;0.80;;;-2.50;99.90;;;;;;5043757;28;20641;-72
2023/01/03 02:46:57;;;;;;;0.70;0.70;;;-2.50;99.90;;;;;;5085376;28;20569;-73
2023/01/03 02:49:47;;;;;;;0.73;0.73;;;-2.50;99.90;;;;;;5095072;28;20202;-74
2023/01/03 02:52:19;;;;;;;0.60;0.60;;;-2.50;99.90;;;;;;5095296;28;20192;-73
2023/01/03 02:55:05;;;;;;;0.77;0.77;;;-2.50;99.90;;;;;;5076955;28;20569;-72
2023/01/03 02:57:39;;;;;;;0.80;0.80;;;-2.50;99.90;;;;;;5094675;28;20184;-73
2023/01/03 03:00:10;;;;;;;0.70;0.70;;;-2.50;99.90;;;;;;5095321;28;20546;-72
2023/01/03 03:02:37;;;;;;;0.90;0.90;;;-2.50;99.90;;;;;;5093826;28;20577;-72
2023/01/03 03:05:09;;;;;;;0.82;0.82;;;-2.60;99.90;;;;;;5094863;28;20215;-72
2023/01/03 03:07:40;;;;;;;0.80;0.80;;;-2.60;99.90;;;;;;5078995;28;20199;-73
2023/01/03 03:13:12;;;;;;;0.70;0.70;;;-2.70;99.90;;;;;;5115421;28;20272;-72
2023/01/03 03:16:17;;;;;;;0.60;0.60;;;-2.80;99.90;;;;;;5114993;28;20657;-72
2023/01/03 03:18:55;;;;;;;0.70;0.70;;;-2.80;99.90;;;;;;5076661;28;20220;-72
2023/01/03 03:28:33;;;;;;;0.80;0.80;;;-3.00;99.90;;;;;;5095115;28;20330;-72
2023/01/03 03:29:53;;;;;;;0.80;0.80;;;-3.00;99.90;;;;;;5094897;28;20609;-72
2023/01/03 03:32:20;;;;;;;0.80;0.80;;;-3.00;99.90;;;;;;5095151;28;20195;-73
2023/01/03 03:34:49;;;;;;;0.80;0.80;;;-3.10;99.90;;;;;;5094814;28;20188;-73
2023/01/03 03:37:18;;;;;;;0.70;0.70;;;-3.20;99.90;;;;;;5093895;28;20225;-73
2023/01/03 03:45:42;;;;;;;0.80;0.80;;;-3.20;99.90;;;;;;5094034;28;20234;-73
2023/01/03 03:48:15;;;;;;;0.73;0.73;;;-3.30;99.90;;;;;;5094431;28;20188;-73
2023/01/03 03:50:59;;;;;;;0.70;0.70;;;-3.30;99.90;;;;;;5076351;28;20658;-73
2023/01/03 03:53:31;;;;;;;0.80;0.80;;;-3.30;99.90;;;;;;5094097;28;20188;-72
2023/01/03 03:56:09;;;;;;;0.75;0.75;;;-3.40;99.90;;;;;;5094421;28;20192;-72
2023/01/03 03:58:40;;;;;;;0.60;0.60;;;-3.40;99.90;;;;;;5094454;28;20188;-73
2023/01/03 04:01:09;;;;;;;0.70;0.70;;;-3.40;99.90;;;;;;5093690;28;20732;-73
2023/01/03 04:03:37;;;;;;;0.80;0.80;;;-3.40;99.90;;;;;;5084469;28;20241;-71
2023/01/03 04:06:38;;;;;;;0.80;0.80;;;-3.50;99.90;;;;;;5096491;28;20540;-72
2023/01/03 04:09:04;;;;;;;0.77;0.77;;;-3.50;99.90;;;;;;5092459;28;20290;-71
2023/01/03 04:11:29;;;;;;;0.80;0.80;;;-3.50;99.90;;;;;;5114479;28;20279;-71
2023/01/03 04:13:55;;;;;;;0.80;0.80;;;-3.60;99.90;;;;;;5114583;28;20201;-72
2023/01/03 04:16:21;;;;;;;0.80;0.80;;;-3.60;99.90;;;;;;5114546;28;20195;-72
2023/01/03 04:18:47;;;;;;;0.73;0.73;;;-3.70;99.90;;;;;;5095691;28;20633;-72
2023/01/03 04:21:12;;;;;;;0.80;0.80;;;-3.70;99.90;;;;;;5076840;28;20204;-72
2023/01/03 04:23:38;;;;;;;0.88;0.88;;;-3.70;99.90;;;;;;5076310;28;20249;-72
2023/01/03 04:26:04;;;;;;;0.80;0.80;;;-3.80;99.90;;;;;;5094122;28;20718;-71
2023/01/03 04:28:30;;;;;;;0.70;0.70;;;-3.80;99.90;;;;;;5093651;28;20230;-72
2023/01/03 04:30:55;;;;;;;0.80;0.80;;;-3.80;99.90;;;;;;5075587;28;20196;-72
2023/01/03 04:33:21;;;;;;;0.70;0.70;;;-3.80;99.90;;;;;;5093527;28;20317;-73
2023/01/03 04:35:47;;;;;;;0.80;0.80;;;-3.80;99.90;;;;;;5075748;28;20275;-73
2023/01/03 04:38:13;;;;;;;0.80;0.80;;;-3.80;99.90;;;;;;5094309;28;20609;-72
2023/01/03 04:40:38;;;;;;;0.60;0.60;;;-3.90;99.90;;;;;;5075621;28;20223;-72
2023/01/03 04:45:49;;;;;;;0.80;0.80;;;-4.00;99.90;;;;;;5093747;28;20194;-73
2023/01/03 04:48:15;;;;;;;0.80;0.80;;;-4.00;99.90;;;;;;5093683;28;20192;-72
2023/01/03 04:50:47;;;;;;;0.80;0.80;;;-4.00;99.90;;;;;;5074919;28;20199;-72
2023/01/03 04:53:13;;;;;;;0.80;0.80;;;-4.10;99.90;;;;;;5093505;28;20287;-72
2023/01/03 04:55:48;;;;;;;0.88;0.88;;;-4.20;99.90;;;;;;5074946;28;20662;-73
2023/01/03 04:58:14;;;;;;;0.73;0.73;;;-4.30;99.90;;;;;;5093776;28;20192;-72
2023/01/03 05:00:42;;;;;;;0.80;0.80;;;-4.40;99.90;;;;;;5082420;28;20207;-73
2023/01/03 05:03:09;;;;;;;0.88;0.88;;;-4.50;99.90;;;;;;5113432;28;20227;-73
2023/01/03 05:05:36;;;;;;;0.80;0.80;;;-4.60;99.90;;;;;;5113087;28;20219;-74
2023/01/03 05:08:07;;;;;;;0.80;0.80;;;-4.70;99.90;;;;;;5113871;28;20188;-72
2023/01/03 05:10:33;;;;;;;0.70;0.70;;;-4.80;99.90;;;;;;5113607;28;20195;-71
2023/01/03 05:12:59;;;;;;;0.80;0.80;;;-4.90;99.90;;;;;;5113740;28;20191;-71
2023/01/03 05:15:26;;;;;;;0.88;0.88;;;-5.00;99.90;;;;;;5093189;28;20195;-72
2023/01/03 05:17:52;;;;;;;0.80;0.80;;;-5.00;99.90;;;;;;5075241;28;20196;-72
2023/01/03 05:25:49;;;;;;;0.90;0.90;;;-5.30;99.90;;;;;;5093470;28;20730;-73
2023/01/03 05:28:15;;;;;;;0.80;0.80;;;-5.40;99.90;;;;;;5075200;28;20200;-73
2023/01/03 05:30:41;;;;;;;0.90;0.90;;;-5.50;99.90;;;;;;5093061;28;20578;-73
2023/01/03 05:33:06;;;;;;;0.88;0.88;;;-5.60;99.90;;;;;;5093242;28;20200;-73
2023/01/03 05:35:32;;;;;;;0.80;0.80;;;-5.70;99.90;;;;;;5092986;28;20348;-72
2023/01/03 05:37:58;;;;;;;0.77;0.77;;;-5.80;99.90;;;;;;5087809;28;20208;-73
2023/01/03 05:40:24;;;;;;;0.85;0.85;;;-5.80;99.90;;;;;;5074815;28;20196;-72
2023/01/03 05:42:49;;;;;;;0.83;0.83;;;-5.90;99.90;;;;;;5074904;28;20212;-72
2023/01/03 05:45:15;;;;;;;0.80;0.80;;;-6.00;99.90;;;;;;5093203;28;20192;-73
2023/01/03 05:47:41;;;;;;;0.70;0.70;;;-6.10;99.90;;;;;;5092813;28;20715;-73
2023/01/03 05:50:07;;;;;;;0.80;0.80;;;-6.20;99.90;;;;;;5092921;28;20207;-72
2023/01/03 05:52:33;;;;;;;0.70;0.70;;;-6.30;99.90;;;;;;5092806;28;20250;-72
2023/01/03 05:54:59;;;;;;;0.90;0.90;;;-6.40;99.90;;;;;;5092406;28;20188;-71
2023/01/03 05:57:25;;;;;;;0.90;0.90;;;-6.40;99.90;;;;;;5086056;28;20234;-71
2023/01/03 05:59:50;;;;;;;0.90;0.90;;;-6.40;99.90;;;;;;5095207;28;20202;-71
2023/01/03 06:02:16;;;;;;;0.80;0.80;;;-6.50;99.90;;;;;;5100936;27;20234;-72
2023/01/03 06:04:42;;;;;;;0.90;0.90;;;-6.50;99.90;;;;;;5115915;28;20199;-72
2023/01/03 06:07:07;;;;;;;0.90;0.90;;;-6.60;99.90;;;;;;5098674;28;20195;-72
2023/01/03 06:09:33;;;;;;;0.80;0.80;;;-6.60;99.90;;;;;;5116680;28;20216;-71
2023/01/03 06:11:59;;;;;;;0.97;0.97;;;-6.60;99.90;;;;;;5116897;28;20751;-72
2023/01/03 06:14:24;;;;;;;0.80;0.80;;;-6.70;99.90;;;;;;5098106;27;20200;-72
2023/01/03 06:19:34;;;;;;;0.73;0.73;;;-6.70;99.90;;;;;;5116975;28;20238;-72
2023/01/03 06:22:00;;;;;;;0.80;0.80;;;-6.70;99.90;;;;;;5097406;28;20222;-73
2023/01/03 06:24:26;;;;;;;0.80;0.80;;;-6.70;99.90;;;;;;5078256;28;20188;-72
2023/01/03 06:26:51;;;;;;;0.93;0.93;;;-6.70;99.90;;;;;;5077912;28;20199;-72
2023/01/03 06:29:17;;;;;;;0.80;0.80;;;-6.80;99.90;;;;;;5096323;28;20227;-73
2023/01/03 06:31:43;;;;;;;0.90;0.90;;;-6.80;99.90;;;;;;5096086;28;20192;-72
2023/01/03 06:34:09;;;;;;;0.83;0.83;;;-6.90;99.90;;;;;;5096124;28;20535;-72
2023/01/03 06:36:35;;;;;;;0.90;0.90;;;-7.00;99.90;;;;;;5095300;28;20263;-73
2023/01/03 06:39:01;;;;;;;0.90;0.90;;;-7.00;99.90;;;;;;5111070;28;20200;-72
2023/01/03 06:41:27;;;;;;;0.90;0.90;;;-7.10;99.90;;;;;;5097780;28;20214;-72
2023/01/03 06:43:54;;;;;;;0.80;0.80;;;-7.10;99.90;;;;;;5116208;28;20685;-72
2023/01/03 06:54:36;;;;;;;0.80;0.80;;;-7.30;99.90;;;;;;5135915;27;20328;-72
2023/01/03 06:57:03;;;;;;;0.80;0.80;;;-7.30;99.90;;;;;;5136731;27;20183;-72
2023/01/03 06:59:29;;;;;;;0.80;0.80;;;-7.40;99.90;;;;;;5136802;27;20230;-71
2023/01/03 07:01:55;;;;;;;0.77;0.77;;;-7.40;99.90;;;;;;5124278;27;20680;-71
2023/01/03 07:04:22;;;;;;;0.90;0.90;;;-7.40;99.90;;;;;;5097403;28;20204;-72
2023/01/03 07:06:48;;;;;;;0.90;0.90;;;-7.50;99.90;;;;;;5115891;28;20202;-72
2023/01/03 07:09:14;;;;;;;0.80;0.80;;;-7.50;99.90;;;;;;5097626;28;20196;-72
2023/01/03 07:11:40;;;;;;;0.90;0.90;;;-7.50;99.90;;;;;;5097165;28;20294;-74
2023/01/03 07:14:08;;;;;;;0.73;0.73;;;-7.60;99.90;;;;;;5114815;28;20568;-73
2023/01/03 07:16:38;;;;;;;0.90;0.90;;;-7.60;99.90;;;;;;5115671;28;20196;-72
2023/01/03 07:19:06;;;;;;;0.80;0.80;;;-7.60;99.90;;;;;;5097459;28;20250;-73
2023/01/03 07:21:33;;;;;;;0.80;0.80;;;-7.60;99.90;;;;;;5097276;28;20739;-71
2023/01/03 07:24:01;;;;;;;0.80;0.80;;;-7.70;99.90;;;;;;5097364;28;20199;-72
2023/01/03 07:26:29;;;;;;;0.90;0.90;;;-7.70;99.90;;;;;;5115605;28;20197;-72
2023/01/03 07:28:56;;;;;;;0.97;0.97;;;-7.70;99.90;;;;;;5115575;28;20198;-71
2023/01/03 07:31:22;;;;;;;0.90;0.90;;;-7.80;99.90;;;;;;5115168;28;20596;-72
2023/01/03 07:33:48;;;;;;;0.90;0.90;;;-7.80;99.90;;;;;;5114715;28;20187;-71
2023/01/03 07:36:15;;;;;;;0.90;0.90;;;-7.80;99.90;;;;;;5096885;28;20207;-71
2023/01/03 07:38:42;;;;;;;0.90;0.90;;;-7.80;99.90;;;;;;5114495;28;20278;-72
2023/01/03 07:41:09;;;;;;;0.90;0.90;;;-7.90;99.90;;;;;;5114842;28;20203;-71
2023/01/03 07:43:37;;;;;;;0.90;0.90;;;-7.90;99.90;;;;;;5114619;28;20282;-71
2023/01/03 07:46:20;;;;;;;0.90;0.90;;;-8.00;99.90;;;;;;5114880;28;20655;-71
2023/01/03 07:48:51;;;;;;;0.83;0.83;;;-8.00;99.90;;;;;;5117360;27;20199;-72
2023/01/03 07:51:20;;;;;;;0.90;0.90;;;-8.00;99.90;;;;;;5117414;27;20199;-71
2023/01/03 07:53:49;;;;;;;0.90;0.90;;;-8.00;99.90;;;;;;5117192;27;20667;-72
2023/01/03 07:56:18;;;;;;;0.90;0.90;;;-8.00;99.90;;;;;;5135243;27;20187;-72
2023/01/03 07:58:45;;;;;;;0.80;0.80;;;-8.00;99.90;;;;;;5116859;27;20256;-74
2023/01/03 08:01:21;;;;;;;0.90;0.90;;;-8.10;99.90;;;;;;5134806;27;20298;-74
2023/01/03 08:03:48;;;;;;;0.90;0.90;;;-8.00;99.90;;;;;;5112317;28;20605;-73
2023/01/03 08:06:20;;;;;;;0.87;0.87;;;-8.00;99.90;;;;;;5094224;28;20211;-70
2023/01/03 08:13:16;;;;;;;0.87;0.87;;;-8.10;99.90;;;;;;5091783;28;20231;-72
2023/01/03 08:14:15;;;;;;;0.90;0.90;;;-8.10;99.90;;;;;;5093101;28;20751;-72
2023/01/03 08:16:41;;;;;;;0.90;0.90;;;-8.20;99.90;;;;;;5093006;28;20188;-71
2023/01/03 08:19:07;;;;;;;0.90;0.90;;;-8.20;99.90;;;;;;5091563;28;20200;-72
2023/01/03 08:21:32;;;;;;;0.90;0.90;;;-8.20;99.90;;;;;;5091529;28;20204;-72
2023/01/03 08:23:58;;;;;;;0.90;0.90;;;-8.20;99.90;;;;;;5092626;28;20227;-72
2023/01/03 08:26:24;;;;;;;0.90;0.90;;;-8.20;99.90;;;;;;5092937;28;20192;-73
2023/01/03 08:28:50;;;;;;;0.80;0.80;;;-8.20;99.90;;;;;;5092084;28;20207;-72
2023/01/03 08:31:27;;;;;;;0.90;0.90;;;-8.10;99.90;;;;;;5091679;28;20219;-73
2023/01/03 08:34:03;;;;;;;0.83;0.83;;;-8.10;99.90;;;;;;5093044;28;20187;-73
2023/01/03 08:36:34;;;;;;;0.90;0.90;;;-8.10;99.90;;;;;;5092712;28;20200;-72
2023/01/03 08:39:06;;;;;;;1.00;1.00;;;-8.10;99.90;;;;;;5092772;28;20253;-74
2023/01/03 08:41:40;;;;;;;0.80;0.80;;;-8.10;99.90;;;;;;5091007;28;20208;-74
2023/01/03 08:44:08;;;;;;;0.80;0.80;;;-8.10;99.90;;;;;;5092413;28;20199;-74
2023/01/03 08:46:39;;;;;;;0.90;0.90;;;-8.10;99.90;;;;;;5107271;28;20203;-72
2023/01/03 08:49:05;;;;;;;0.90;0.90;;;-8.10;99.90;;;;;;5113330;28;20293;-73
2023/01/03 08:51:31;;;;;;;0.90;0.90;;;-8.10;99.90;;;;;;5111674;28;20200;-71
2023/01/03 08:53:57;;;;;;;0.80;0.80;;;-8.10;99.90;;;;;;5104885;28;20218;-71
2023/01/03 08:56:23;;;;;;;0.80;0.80;;;-8.10;99.90;;;;;;5092663;28;20658;-69
2023/01/03 08:58:48;;;;;;;0.90;0.90;;;-8.10;99.90;;;;;;5091401;28;20236;-70
2023/01/03 09:01:14;;;;;;;0.80;0.80;;;-8.10;99.90;;;;;;5091109;28;20204;-71
2023/01/03 09:03:40;;;;;;;0.90;0.90;;;-8.20;99.90;;;;;;5047841;28;1281055;-72
2023/01/03 09:06:06;;;;;;;1.73;1.63;;;-8.20;99.90;;;;;;5092123;28;20646;-71
2023/01/03 09:08:33;;;;;;;0.80;0.80;;;-8.20;99.90;;;;;;5093402;28;20196;-72
2023/01/03 09:11:07;;;;;;;0.77;0.77;;;-8.10;99.90;;;;;;5084547;28;20201;-71
2023/01/03 09:13:33;;;;;;;0.90;0.90;;;-8.10;99.90;;;;;;5073071;28;20236;-72
2023/01/03 09:16:04;;;;;;;0.90;0.90;;;-8.10;99.90;;;;;;5073193;28;20258;-71
2023/01/03 09:18:29;;;;;;;0.90;0.90;;;-8.10;99.90;;;;;;5073019;28;20242;-73
2023/01/03 09:20:55;;;;;;;1.30;1.20;;;-8.00;99.90;;;;;;5073033;28;20283;-73
2023/01/03 09:23:21;;;;;;;0.83;0.83;;;-8.00;99.90;;;;;;5087297;28;20204;-73
2023/01/03 09:25:47;;;;;;;0.80;0.80;;;-7.90;99.90;;;;;;5093233;28;20203;-73
2023/01/03 09:28:13;;;;;;;0.80;0.80;;;-7.90;99.90;;;;;;5091467;28;20677;-71
2023/01/03 09:30:38;;;;;;;0.90;0.90;;;-7.80;99.90;;;;;;5092838;28;20211;-70
2023/01/03 09:33:04;;;;;;;0.80;0.80;;;-7.80;99.90;;;;;;5075189;28;20196;-70
2023/01/03 09:35:31;;;;;;;0.90;0.90;;;-7.90;99.90;;;;;;5092113;28;20223;-72
2023/01/03 09:37:57;;;;;;;0.87;0.87;;;-7.80;99.90;;;;;;5092377;28;20247;-71
2023/01/03 09:40:23;;;;;;;0.87;0.87;;;-7.90;99.90;;;;;;5076866;28;20193;-71
2023/01/03 09:45:42;;;;;;;0.90;0.90;;;-7.80;99.90;;;;;;5116906;28;20676;-75
2023/01/03 09:48:12;;;;;;;0.80;0.80;;;-7.80;99.90;;;;;;5116130;28;20203;-70
2023/01/03 09:50:38;;;;;;;0.90;0.90;;;-7.80;99.90;;;;;;5117091;28;20935;-71
2023/01/03 10:05:00;;;;;;;0.90;0.90;;;-7.70;99.90;;;;;;5095953;28;20207;-71
2023/01/03 10:07:51;;;;;;;0.90;0.90;;;-7.70;99.90;;;;;;5094569;28;20204;-71
2023/01/03 10:10:31;;;;;;;0.90;0.90;;;-7.70;99.90;;;;;;5096449;28;20192;-72
2023/01/03 10:13:04;;;;;;;0.80;0.80;;;-7.60;99.90;;;;;;5096637;28;20192;-72
2023/01/03 10:16:05;;;;;;;1.00;1.00;;;-7.60;99.90;;;;;;5095036;28;20271;-71
2023/01/03 10:18:52;;;;;;;0.90;0.90;;;-7.60;99.90;;;;;;5054618;28;20589;-72
2023/01/03 10:21:48;;;;;;;0.90;0.90;;;-7.60;99.90;;;;;;5094840;28;20697;-72
2023/01/03 10:24:23;;;;;;;0.90;0.90;;;-7.50;99.90;;;;;;5095056;28;20204;-72
2023/01/03 10:26:54;;;;;;;0.80;0.80;;;-7.50;99.90;;;;;;5094865;28;20194;-72
2023/01/03 10:29:20;;;;;;;0.90;0.90;;;-7.50;99.90;;;;;;5096010;28;20188;-73
2023/01/03 10:32:27;;;;;;;0.90;0.90;;;-7.50;99.90;;;;;;5096258;28;20229;-72
2023/01/03 10:35:11;;;;;;;0.87;0.87;;;-7.50;99.90;;;;;;5057960;28;21082;-72
2023/01/03 10:37:39;;;;;;;0.80;0.80;;;-7.40;99.90;;;;;;5098343;28;20674;-71
2023/01/03 10:40:05;;;;;;;0.77;0.77;;;-7.40;99.90;;;;;;5116404;28;20676;-71
2023/01/03 10:42:34;;;;;;;0.80;0.80;;;-7.40;99.90;;;;;;5116165;28;20207;-72
2023/01/03 10:45:09;;;;;;;0.80;0.80;;;-7.40;99.90;;;;;;5116487;28;20535;-72
2023/01/03 10:47:34;;;;;;;1.00;1.00;;;-7.40;99.90;;;;;;5098807;28;20240;-72
2023/01/03 10:50:03;;;;;;;0.80;0.80;;;-7.40;99.90;;;;;;5094843;28;20291;-72
2023/01/03 10:52:52;;;;;;;0.90;0.90;;;-7.40;99.90;;;;;;5095415;28;20234;-72
2023/01/03 10:55:18;;;;;;;0.93;0.93;;;-7.30;99.90;;;;;;5075486;28;20193;-72
2023/01/03 10:57:55;;;;;;;0.90;0.90;;;-7.30;99.90;;;;;;5095732;28;20669;-72
2023/01/03 11:00:34;;;;;;;0.80;0.80;;;-7.20;99.90;;;;;;5095550;28;20555;-72
2023/01/03 11:03:16;;;;;;;0.80;0.80;;;-7.00;99.90;;;;;;5095277;28;20591;-72
2023/01/03 11:06:05;;;;;;;1.00;1.00;;;-6.90;99.90;;;;;;5095536;28;20196;-74
2023/01/03 11:08:44;;;;;;;0.90;0.90;;;-6.90;99.90;;;;;;5077354;28;20196;-74
2023/01/03 11:11:33;;;;;;;0.80;0.80;;;-6.80;99.90;;;;;;5095861;28;20192;-75
2023/01/03 11:14:08;;;;;;;0.80;0.80;;;-6.80;99.90;;;;;;5093623;28;20196;-74
2023/01/03 11:16:34;;;;;;;0.93;0.93;;;-6.70;99.90;;;;;;5095078;28;20205;-73
2023/01/03 11:19:02;;;;;;;0.80;0.80;;;-6.70;99.90;;;;;;5095319;28;20670;-74
2023/01/03 11:21:44;;;;;;;0.83;0.83;;;-6.70;99.90;;;;;;5094988;28;20661;-73
2023/01/03 11:24:45;;;;;;;0.80;0.80;;;-6.70;99.90;;;;;;5094206;28;20552;-73
2023/01/03 11:27:11;;;;;;;0.80;0.80;;;-6.70;99.90;;;;;;5062869;28;20203;-74
2023/01/03 11:29:46;;;;;;;0.90;0.90;;;-6.70;99.90;;;;;;5094704;28;20238;-73
2023/01/03 11:32:36;;;;;;;0.80;0.80;;;-6.70;99.90;;;;;;5094820;28;20192;-73
2023/01/03 11:35:13;;;;;;;0.90;0.90;;;-6.80;99.90;;;;;;5107520;28;20211;-73
2023/01/03 11:38:09;;;;;;;0.80;0.80;;;-6.80;99.90;;;;;;5111132;28;21242;-74
2023/01/03 11:41:02;;;;;;;0.87;0.87;;;-6.70;99.90;;;;;;5058321;28;20335;-73
2023/01/03 11:43:36;;;;;;;0.87;0.87;;;-6.70;99.90;;;;;;5092867;28;20200;-75
2023/01/03 11:46:05;;;;;;;0.73;0.73;;;-6.70;99.90;;;;;;5094594;28;20195;-74
2023/01/03 11:48:56;;;;;;;0.90;0.90;;;-6.70;99.90;;;;;;5093370;28;20189;-74
2023/01/03 11:51:51;;;;;;;0.70;0.70;;;-6.80;99.90;;;;;;5093937;28;20721;-74
2023/01/03 11:54:57;;;;;;;1.30;1.20;;;-6.70;99.90;;;;;;5073043;28;20242;-74
2023/01/03 11:57:44;;;;;;;0.70;0.70;;;-6.70;99.90;;;;;;5073764;28;20266;-74
2023/01/03 12:00:36;;;;;;;0.90;0.90;;;-6.70;99.90;;;;;;5072342;28;20249;-73
2023/01/03 12:03:35;;;;;;;0.90;0.90;;;-6.70;99.90;;;;;;5073788;28;20225;-73
2023/01/03 12:06:23;;;;;;;0.90;0.90;;;-6.70;99.90;;;;;;5074310;28;20318;-76
2023/01/03 12:09:05;;;;;;;0.80;0.80;;;-6.80;99.90;;;;;;5074246;28;20188;-74
2023/01/03 12:11:56;;;;;;;0.87;0.87;;;-6.80;99.90;;;;;;5072967;28;20204;-75
2023/01/03 12:14:40;;;;;;;1.00;1.00;;;-6.90;99.90;;;;;;5073882;28;20200;-75
2023/01/03 12:17:32;;;;;;;0.80;0.80;;;-7.00;99.90;;;;;;5073600;28;20292;-74
2023/01/03 12:20:18;;;;;;;0.90;0.90;;;-7.00;99.90;;;;;;5078582;28;20248;-76
2023/01/03 12:22:51;;;;;;;0.80;0.80;;;-7.10;99.90;;;;;;5094068;28;20204;-77
2023/01/03 12:25:34;;;;;;;0.90;0.90;;;-7.10;99.90;;;;;;5094869;28;20646;-75
2023/01/03 12:28:22;;;;;;;0.90;0.90;;;-7.20;99.90;;;;;;5092937;28;20192;-76
2023/01/03 12:31:04;;;;;;;0.80;0.80;;;-7.30;99.90;;;;;;5104607;28;20187;-75
2023/01/03 12:33:42;;;;;;;0.80;0.80;;;-7.30;99.90;;;;;;5116890;28;20187;-76
2023/01/03 12:36:26;;;;;;;0.80;0.80;;;-7.30;99.90;;;;;;5113346;28;20231;-75
2023/01/03 12:39:02;;;;;;;0.80;0.80;;;-7.30;99.90;;;;;;5099919;28;20253;-73
2023/01/03 12:41:35;;;;;;;0.80;0.80;;;-7.20;99.90;;;;;;5093434;28;20604;-74
2023/01/03 12:44:06;;;;;;;0.70;0.70;;;-7.10;99.90;;;;;;5093656;28;20184;-74
2023/01/03 12:46:40;;;;;;;0.70;0.70;;;-7.10;99.90;;;;;;5092347;28;20238;-73
2023/01/03 12:49:20;;;;;;;0.80;0.80;;;-7.20;99.90;;;;;;5093598;28;20188;-73
2023/01/03 12:51:46;;;;;;;0.87;0.87;;;-7.20;99.90;;;;;;5092163;28;20198;-72
2023/01/03 12:54:24;;;;;;;0.90;0.90;;;-7.20;99.90;;;;;;5092224;28;20244;-74
2023/01/03 12:57:11;;;;;;;0.80;0.80;;;-7.30;99.90;;;;;;5093593;28;20188;-72
2023/01/03 12:59:43;;;;;;;0.80;0.80;;;-7.30;99.90;;;;;;5091992;28;20199;-74
2023/01/03 13:02:26;;;;;;;0.90;0.90;;;-7.30;99.90;;;;;;5093038;28;20694;-73
2023/01/03 13:04:58;;;;;;;0.90;0.90;;;-7.20;99.90;;;;;;5092087;28;20204;-73
2023/01/03 13:07:32;;;;;;;1.10;1.10;;;-7.30;99.90;;;;;;5091985;28;20215;-74
2023/01/03 13:10:15;;;;;;;0.90;0.90;;;-7.30;99.90;;;;;;5093039;28;20249;-73
2023/01/03 13:12:47;;;;;;;0.80;0.80;;;-7.40;99.90;;;;;;5093254;28;20191;-73
2023/01/03 13:15:32;;;;;;;0.80;0.80;;;-7.50;99.90;;;;;;5093590;28;20658;-73
2023/01/03 13:18:19;;;;;;;0.90;0.90;;;-7.50;99.90;;;;;;5073251;28;20192;-74
2023/01/03 13:20:46;;;;;;;0.80;0.80;;;-7.60;99.90;;;;;;5071826;28;20206;-73
2023/01/03 13:23:30;;;;;;;0.90;0.90;;;-7.60;99.90;;;;;;5072859;28;20582;-73
2023/01/03 13:26:05;;;;;;;0.90;0.90;;;-7.60;99.90;;;;;;5071813;28;20192;-73
2023/01/03 13:28:33;;;;;;;0.90;0.90;;;-7.60;99.90;;;;;;5073020;28;20658;-73
2023/01/03 13:31:17;;;;;;;0.77;0.77;;;-7.70;99.90;;;;;;5073086;28;20318;-73
2023/01/03 13:33:52;;;;;;;0.70;0.70;;;-7.70;99.90;;;;;;5072954;28;20242;-73
2023/01/03 13:36:19;;;;;;;0.80;0.80;;;-7.70;99.90;;;;;;5072939;28;20276;-73
2023/01/03 13:38:45;;;;;;;0.83;0.83;;;-7.70;99.90;;;;;;5071325;28;20568;-73
2023/01/03 13:41:37;;;;;;;0.87;0.87;;;-7.80;99.90;;;;;;5072559;28;20566;-72
2023/01/03 13:44:23;;;;;;;0.90;0.90;;;-7.90;99.90;;;;;;5070983;28;20200;-73
2023/01/03 13:46:50;;;;;;;0.90;0.90;;;-7.90;99.90;;;;;;5091550;28;20545;-72
2023/01/03 13:49:22;;;;;;;0.83;0.83;;;-8.00;99.90;;;;;;5091764;28;20570;-72
2023/01/03 13:51:54;;;;;;;0.97;0.97;;;-8.00;99.90;;;;;;5091487;28;20223;-73
2023/01/03 13:54:19;;;;;;;0.90;0.90;;;-8.00;99.90;;;;;;5092678;28;20708;-73
2023/01/03 13:56:45;;;;;;;0.80;0.80;;;-8.10;99.90;;;;;;5093050;28;20204;-74
2023/01/03 13:59:13;;;;;;;0.90;0.90;;;-8.20;99.90;;;;;;5093250;28;20196;-74
2023/01/03 14:02:04;;;;;;;1.00;1.00;;;-8.20;99.90;;;;;;5092524;28;20602;-73
2023/01/03 14:04:48;;;;;;;1.00;1.00;;;-8.30;99.90;;;;;;5091319;28;20216;-73
2023/01/03 14:07:39;;;;;;;0.80;0.80;;;-8.20;99.90;;;;;;5091860;28;20204;-72